sensor_id;sensor_type;location;lat;lon;timestamp;P1;durP1;ratioP1;P2;durP2;ratioP2
20144;SDS011;10233;50.814;6.590;2022-08-27T00:00:21;4.70;;;1.83;;
20144;SDS011;10233;50.814;6.590;2022-08-27T00:01:23;5.18;;;2.00;;
20144;SDS011;10233;50.814;6.590;2022-08-27T00:02:24;5.93;;;1.80;;
20144;SDS011;10233;50.814;6.590;2022-08-27T00:03:24;3.72;;;1.65;;
20144;SDS011;10233;50.814;6.590;2022-08-27T00:04:25;4.27;;;2.00;;
20144;SDS011;10233;50.814;6.590;2022-08-27T00:05:25;4.65;;;2.10;;
20144;SDS011;10233;50.814;6.590;2022-08-27T00:06:26;11.50;;;3.40;;
20144;SDS011;10233;50.814;6.590;2022-08-27T00:07:28;8.65;;;3.28;;
20144;SDS011;10233;50.814;6.590;2022-08-27T00:08:28;4.85;;;3.13;;
20144;SDS011;10233;50.814;6.590;2022-08-27T00:09:30;7.32;;;3.15;;
20144;SDS011;10233;50.814;6.590;2022-08-27T00:10:31;6.13;;;2.80;;
20144;SDS011;10233;50.814;6.590;2022-08-27T00:11:32;5.70;;;2.90;;
20144;SDS011;10233;50.814;6.590;2022-08-27T00:12:34;6.78;;;2.20;;
20144;SDS011;10233;50.814;6.590;2022-08-27T00:13:35;5.10;;;2.63;;
20144;SDS011;10233;50.814;6.590;2022-08-27T00:14:37;6.10;;;2.85;;
20144;SDS011;10233;50.814;6.590;2022-08-27T00:15:38;4.47;;;2.53;;
20144;SDS011;10233;50.814;6.590;2022-08-27T00:16:38;4.55;;;2.95;;
20144;SDS011;10233;50.814;6.590;2022-08-27T00:17:39;3.20;;;2.17;;
20144;SDS011;10233;50.814;6.590;2022-08-27T00:18:41;3.93;;;1.70;;
20144;SDS011;10233;50.814;6.590;2022-08-27T00:19:44;4.10;;;2.10;;
20144;SDS011;10233;50.814;6.590;2022-08-27T00:20:45;5.20;;;1.93;;
20144;SDS011;10233;50.814;6.590;2022-08-27T00:21:45;4.80;;;1.50;;
20144;SDS011;10233;50.814;6.590;2022-08-27T00:22:46;3.67;;;1.60;;
20144;SDS011;10233;50.814;6.590;2022-08-27T00:23:46;3.35;;;1.00;;
20144;SDS011;10233;50.814;6.590;2022-08-27T00:24:47;4.45;;;1.63;;
20144;SDS011;10233;50.814;6.590;2022-08-27T00:25:47;3.57;;;1.30;;
20144;SDS011;10233;50.814;6.590;2022-08-27T00:26:48;2.75;;;1.20;;
20144;SDS011;10233;50.814;6.590;2022-08-27T00:27:52;2.97;;;1.42;;
20144;SDS011;10233;50.814;6.590;2022-08-27T00:28:52;3.53;;;1.33;;
20144;SDS011;10233;50.814;6.590;2022-08-27T00:29:53;5.47;;;1.50;;
20144;SDS011;10233;50.814;6.590;2022-08-27T00:30:54;5.18;;;1.38;;
20144;SDS011;10233;50.814;6.590;2022-08-27T00:31:55;2.95;;;1.15;;
20144;SDS011;10233;50.814;6.590;2022-08-27T00:32:55;2.43;;;1.50;;
20144;SDS011;10233;50.814;6.590;2022-08-27T00:33:56;6.03;;;1.50;;
20144;SDS011;10233;50.814;6.590;2022-08-27T00:34:57;4.10;;;1.70;;
20144;SDS011;10233;50.814;6.590;2022-08-27T00:35:57;4.13;;;1.38;;
20144;SDS011;10233;50.814;6.590;2022-08-27T00:36:58;2.20;;;1.08;;
20144;SDS011;10233;50.814;6.590;2022-08-27T00:37:59;3.60;;;1.40;;
20144;SDS011;10233;50.814;6.590;2022-08-27T00:38:59;2.77;;;1.27;;
20144;SDS011;10233;50.814;6.590;2022-08-27T00:40:01;2.35;;;1.25;;
20144;SDS011;10233;50.814;6.590;2022-08-27T00:41:05;4.78;;;1.52;;
20144;SDS011;10233;50.814;6.590;2022-08-27T00:42:07;3.33;;;1.10;;
20144;SDS011;10233;50.814;6.590;2022-08-27T00:43:08;5.25;;;1.20;;
20144;SDS011;10233;50.814;6.590;2022-08-27T00:44:10;2.50;;;1.07;;
20144;SDS011;10233;50.814;6.590;2022-08-27T00:45:12;2.47;;;1.20;;
20144;SDS011;10233;50.814;6.590;2022-08-27T00:46:21;3.47;;;1.20;;
20144;SDS011;10233;50.814;6.590;2022-08-27T00:47:29;2.42;;;1.00;;
20144;SDS011;10233;50.814;6.590;2022-08-27T00:48:32;3.17;;;1.00;;
20144;SDS011;10233;50.814;6.590;2022-08-27T00:51:07;3.45;;;1.05;;
20144;SDS011;10233;50.814;6.590;2022-08-27T00:52:13;2.45;;;1.10;;
20144;SDS011;10233;50.814;6.590;2022-08-27T00:53:20;3.15;;;1.20;;
20144;SDS011;10233;50.814;6.590;2022-08-27T00:54:24;1.45;;;1.00;;
20144;SDS011;10233;50.814;6.590;2022-08-27T00:55:27;4.47;;;1.48;;
20144;SDS011;10233;50.814;6.590;2022-08-27T00:56:33;4.15;;;1.13;;
20144;SDS011;10233;50.814;6.590;2022-08-27T00:57:38;3.88;;;1.20;;
20144;SDS011;10233;50.814;6.590;2022-08-27T00:58:43;3.35;;;1.08;;
20144;SDS011;10233;50.814;6.590;2022-08-27T00:59:45;6.77;;;1.07;;
20144;SDS011;10233;50.814;6.590;2022-08-27T01:00:46;2.75;;;1.10;;
20144;SDS011;10233;50.814;6.590;2022-08-27T01:01:48;5.88;;;1.02;;
20144;SDS011;10233;50.814;6.590;2022-08-27T01:03:08;3.95;;;1.27;;
20144;SDS011;10233;50.814;6.590;2022-08-27T01:04:08;2.33;;;0.90;;
20144;SDS011;10233;50.814;6.590;2022-08-27T01:05:10;2.23;;;1.03;;
20144;SDS011;10233;50.814;6.590;2022-08-27T01:06:15;4.38;;;1.15;;
20144;SDS011;10233;50.814;6.590;2022-08-27T01:07:17;2.22;;;0.82;;
20144;SDS011;10233;50.814;6.590;2022-08-27T01:08:22;2.83;;;0.90;;
20144;SDS011;10233;50.814;6.590;2022-08-27T01:09:25;5.07;;;1.20;;
20144;SDS011;10233;50.814;6.590;2022-08-27T01:10:26;3.90;;;1.10;;
20144;SDS011;10233;50.814;6.590;2022-08-27T01:11:28;4.28;;;1.10;;
20144;SDS011;10233;50.814;6.590;2022-08-27T01:12:30;5.25;;;1.50;;
20144;SDS011;10233;50.814;6.590;2022-08-27T01:13:32;4.85;;;1.27;;
20144;SDS011;10233;50.814;6.590;2022-08-27T01:14:33;2.83;;;1.20;;
20144;SDS011;10233;50.814;6.590;2022-08-27T01:15:34;3.97;;;1.35;;
20144;SDS011;10233;50.814;6.590;2022-08-27T01:16:36;1.83;;;1.10;;
20144;SDS011;10233;50.814;6.590;2022-08-27T01:17:40;5.15;;;1.35;;
20144;SDS011;10233;50.814;6.590;2022-08-27T01:18:42;4.10;;;1.35;;
20144;SDS011;10233;50.814;6.590;2022-08-27T01:19:50;2.85;;;1.30;;
20144;SDS011;10233;50.814;6.590;2022-08-27T01:23:42;4.85;;;1.10;;
20144;SDS011;10233;50.814;6.590;2022-08-27T01:24:50;3.17;;;1.00;;
20144;SDS011;10233;50.814;6.590;2022-08-27T01:25:55;3.23;;;1.00;;
20144;SDS011;10233;50.814;6.590;2022-08-27T01:26:58;5.13;;;1.25;;
20144;SDS011;10233;50.814;6.590;2022-08-27T01:28:00;2.10;;;0.98;;
20144;SDS011;10233;50.814;6.590;2022-08-27T01:29:02;3.22;;;1.20;;
20144;SDS011;10233;50.814;6.590;2022-08-27T01:30:04;5.80;;;1.37;;
20144;SDS011;10233;50.814;6.590;2022-08-27T01:31:07;4.38;;;1.40;;
20144;SDS011;10233;50.814;6.590;2022-08-27T01:32:14;4.32;;;1.38;;
20144;SDS011;10233;50.814;6.590;2022-08-27T01:33:18;4.13;;;1.00;;
20144;SDS011;10233;50.814;6.590;2022-08-27T01:34:20;3.28;;;1.20;;
20144;SDS011;10233;50.814;6.590;2022-08-27T01:35:21;3.83;;;1.08;;
20144;SDS011;10233;50.814;6.590;2022-08-27T01:36:22;3.38;;;1.15;;
20144;SDS011;10233;50.814;6.590;2022-08-27T01:37:23;3.42;;;1.20;;
20144;SDS011;10233;50.814;6.590;2022-08-27T01:38:25;5.00;;;1.52;;
20144;SDS011;10233;50.814;6.590;2022-08-27T01:39:27;3.80;;;1.15;;
20144;SDS011;10233;50.814;6.590;2022-08-27T01:40:27;2.88;;;1.05;;
20144;SDS011;10233;50.814;6.590;2022-08-27T01:41:28;3.05;;;0.93;;
20144;SDS011;10233;50.814;6.590;2022-08-27T01:42:30;6.90;;;1.25;;
20144;SDS011;10233;50.814;6.590;2022-08-27T01:43:33;5.18;;;1.60;;
20144;SDS011;10233;50.814;6.590;2022-08-27T01:44:41;3.55;;;1.10;;
20144;SDS011;10233;50.814;6.590;2022-08-27T01:45:46;3.75;;;1.10;;
20144;SDS011;10233;50.814;6.590;2022-08-27T01:46:48;2.15;;;1.02;;
20144;SDS011;10233;50.814;6.590;2022-08-27T01:47:49;1.90;;;1.00;;
20144;SDS011;10233;50.814;6.590;2022-08-27T01:48:50;2.15;;;0.90;;
20144;SDS011;10233;50.814;6.590;2022-08-27T01:49:50;2.45;;;1.10;;
20144;SDS011;10233;50.814;6.590;2022-08-27T01:50:51;4.30;;;0.90;;
20144;SDS011;10233;50.814;6.590;2022-08-27T01:51:51;2.75;;;1.30;;
20144;SDS011;10233;50.814;6.590;2022-08-27T01:52:52;1.47;;;0.87;;
20144;SDS011;10233;50.814;6.590;2022-08-27T01:53:53;2.38;;;1.00;;
20144;SDS011;10233;50.814;6.590;2022-08-27T01:54:54;4.97;;;1.37;;
20144;SDS011;10233;50.814;6.590;2022-08-27T01:55:55;3.40;;;1.20;;
20144;SDS011;10233;50.814;6.590;2022-08-27T01:56:56;2.75;;;1.00;;
20144;SDS011;10233;50.814;6.590;2022-08-27T01:57:57;2.43;;;0.90;;
20144;SDS011;10233;50.814;6.590;2022-08-27T01:58:57;2.28;;;1.00;;
20144;SDS011;10233;50.814;6.590;2022-08-27T01:59:58;2.60;;;1.20;;
20144;SDS011;10233;50.814;6.590;2022-08-27T02:01:06;4.72;;;1.20;;
20144;SDS011;10233;50.814;6.590;2022-08-27T02:02:11;3.83;;;1.10;;
20144;SDS011;10233;50.814;6.590;2022-08-27T02:03:14;2.38;;;0.95;;
20144;SDS011;10233;50.814;6.590;2022-08-27T02:04:17;5.95;;;1.35;;
20144;SDS011;10233;50.814;6.590;2022-08-27T02:05:18;5.40;;;0.93;;
20144;SDS011;10233;50.814;6.590;2022-08-27T02:06:19;3.08;;;1.13;;
20144;SDS011;10233;50.814;6.590;2022-08-27T02:07:19;6.30;;;1.50;;
20144;SDS011;10233;50.814;6.590;2022-08-27T02:08:20;1.92;;;0.90;;
20144;SDS011;10233;50.814;6.590;2022-08-27T02:09:21;4.30;;;1.15;;
20144;SDS011;10233;50.814;6.590;2022-08-27T02:10:24;6.17;;;1.10;;
20144;SDS011;10233;50.814;6.590;2022-08-27T02:11:30;3.70;;;1.05;;
20144;SDS011;10233;50.814;6.590;2022-08-27T02:12:30;4.60;;;1.40;;
20144;SDS011;10233;50.814;6.590;2022-08-27T02:13:30;3.40;;;1.10;;
20144;SDS011;10233;50.814;6.590;2022-08-27T02:14:31;5.10;;;1.20;;
20144;SDS011;10233;50.814;6.590;2022-08-27T02:15:32;2.65;;;0.85;;
20144;SDS011;10233;50.814;6.590;2022-08-27T02:16:34;3.15;;;0.90;;
20144;SDS011;10233;50.814;6.590;2022-08-27T02:17:36;3.17;;;1.05;;
20144;SDS011;10233;50.814;6.590;2022-08-27T02:18:37;2.75;;;0.85;;
20144;SDS011;10233;50.814;6.590;2022-08-27T02:19:38;4.13;;;1.00;;
20144;SDS011;10233;50.814;6.590;2022-08-27T02:20:39;2.27;;;1.00;;
20144;SDS011;10233;50.814;6.590;2022-08-27T02:21:41;3.30;;;1.20;;
20144;SDS011;10233;50.814;6.590;2022-08-27T02:22:42;3.08;;;1.35;;
20144;SDS011;10233;50.814;6.590;2022-08-27T02:23:43;3.08;;;1.00;;
20144;SDS011;10233;50.814;6.590;2022-08-27T02:24:44;3.97;;;1.00;;
20144;SDS011;10233;50.814;6.590;2022-08-27T02:25:44;1.97;;;0.90;;
20144;SDS011;10233;50.814;6.590;2022-08-27T02:26:48;1.80;;;1.08;;
20144;SDS011;10233;50.814;6.590;2022-08-27T02:27:48;3.25;;;1.08;;
20144;SDS011;10233;50.814;6.590;2022-08-27T02:28:49;3.35;;;1.00;;
20144;SDS011;10233;50.814;6.590;2022-08-27T02:29:50;2.88;;;1.05;;
20144;SDS011;10233;50.814;6.590;2022-08-27T02:30:51;3.47;;;1.20;;
20144;SDS011;10233;50.814;6.590;2022-08-27T02:31:51;2.55;;;1.00;;
20144;SDS011;10233;50.814;6.590;2022-08-27T02:32:52;5.10;;;1.13;;
20144;SDS011;10233;50.814;6.590;2022-08-27T02:33:55;2.30;;;1.20;;
20144;SDS011;10233;50.814;6.590;2022-08-27T02:34:56;2.20;;;1.00;;
20144;SDS011;10233;50.814;6.590;2022-08-27T02:35:57;2.03;;;1.00;;
20144;SDS011;10233;50.814;6.590;2022-08-27T02:36:58;3.72;;;1.27;;
20144;SDS011;10233;50.814;6.590;2022-08-27T02:37:58;2.25;;;1.35;;
20144;SDS011;10233;50.814;6.590;2022-08-27T02:38:59;3.37;;;1.30;;
20144;SDS011;10233;50.814;6.590;2022-08-27T02:40:00;2.42;;;1.30;;
20144;SDS011;10233;50.814;6.590;2022-08-27T02:41:01;4.13;;;1.20;;
20144;SDS011;10233;50.814;6.590;2022-08-27T02:42:01;4.28;;;1.35;;
20144;SDS011;10233;50.814;6.590;2022-08-27T02:43:02;5.23;;;1.37;;
20144;SDS011;10233;50.814;6.590;2022-08-27T02:44:03;3.20;;;1.10;;
20144;SDS011;10233;50.814;6.590;2022-08-27T02:45:05;2.85;;;1.10;;
20144;SDS011;10233;50.814;6.590;2022-08-27T02:46:07;8.90;;;1.38;;
20144;SDS011;10233;50.814;6.590;2022-08-27T02:47:07;5.43;;;1.60;;
20144;SDS011;10233;50.814;6.590;2022-08-27T02:48:08;3.35;;;1.00;;
20144;SDS011;10233;50.814;6.590;2022-08-27T02:49:08;2.22;;;1.10;;
20144;SDS011;10233;50.814;6.590;2022-08-27T02:50:10;3.92;;;1.00;;
20144;SDS011;10233;50.814;6.590;2022-08-27T02:51:12;1.70;;;1.00;;
20144;SDS011;10233;50.814;6.590;2022-08-27T02:52:13;2.45;;;1.15;;
20144;SDS011;10233;50.814;6.590;2022-08-27T02:53:13;2.93;;;1.07;;
20144;SDS011;10233;50.814;6.590;2022-08-27T02:54:13;3.10;;;1.00;;
20144;SDS011;10233;50.814;6.590;2022-08-27T02:55:14;3.90;;;1.00;;
20144;SDS011;10233;50.814;6.590;2022-08-27T02:56:15;1.90;;;1.10;;
20144;SDS011;10233;50.814;6.590;2022-08-27T02:57:16;5.82;;;1.35;;
20144;SDS011;10233;50.814;6.590;2022-08-27T02:58:16;2.00;;;0.90;;
20144;SDS011;10233;50.814;6.590;2022-08-27T02:59:17;3.15;;;1.02;;
20144;SDS011;10233;50.814;6.590;2022-08-27T03:00:19;4.55;;;1.00;;
20144;SDS011;10233;50.814;6.590;2022-08-27T03:01:20;2.40;;;1.08;;
20144;SDS011;10233;50.814;6.590;2022-08-27T03:02:21;4.07;;;1.50;;
20144;SDS011;10233;50.814;6.590;2022-08-27T03:03:21;3.00;;;1.45;;
20144;SDS011;10233;50.814;6.590;2022-08-27T03:04:22;4.07;;;1.07;;
20144;SDS011;10233;50.814;6.590;2022-08-27T03:05:22;9.57;;;1.50;;
20144;SDS011;10233;50.814;6.590;2022-08-27T03:06:23;3.42;;;1.23;;
20144;SDS011;10233;50.814;6.590;2022-08-27T03:07:24;2.33;;;1.10;;
20144;SDS011;10233;50.814;6.590;2022-08-27T03:08:25;38.53;;;6.23;;
20144;SDS011;10233;50.814;6.590;2022-08-27T03:09:26;224.57;;;34.15;;
20144;SDS011;10233;50.814;6.590;2022-08-27T03:10:27;111.78;;;21.80;;
20144;SDS011;10233;50.814;6.590;2022-08-27T03:11:27;136.00;;;22.88;;
20144;SDS011;10233;50.814;6.590;2022-08-27T03:12:28;88.23;;;16.70;;
20144;SDS011;10233;50.814;6.590;2022-08-27T03:13:28;76.57;;;13.07;;
20144;SDS011;10233;50.814;6.590;2022-08-27T03:14:29;53.63;;;9.63;;
20144;SDS011;10233;50.814;6.590;2022-08-27T03:15:30;37.47;;;7.65;;
20144;SDS011;10233;50.814;6.590;2022-08-27T03:16:32;27.27;;;5.13;;
20144;SDS011;10233;50.814;6.590;2022-08-27T03:17:34;22.60;;;4.57;;
20144;SDS011;10233;50.814;6.590;2022-08-27T03:18:54;16.83;;;3.53;;
20144;SDS011;10233;50.814;6.590;2022-08-27T03:19:54;23.48;;;4.32;;
20144;SDS011;10233;50.814;6.590;2022-08-27T03:20:55;22.95;;;3.78;;
20144;SDS011;10233;50.814;6.590;2022-08-27T03:21:56;20.02;;;4.00;;
20144;SDS011;10233;50.814;6.590;2022-08-27T03:22:56;18.37;;;4.20;;
20144;SDS011;10233;50.814;6.590;2022-08-27T03:23:56;12.77;;;3.03;;
20144;SDS011;10233;50.814;6.590;2022-08-27T03:25:00;9.18;;;2.28;;
20144;SDS011;10233;50.814;6.590;2022-08-27T03:26:03;12.67;;;3.07;;
20144;SDS011;10233;50.814;6.590;2022-08-27T03:27:09;8.85;;;2.22;;
20144;SDS011;10233;50.814;6.590;2022-08-27T03:28:09;11.30;;;2.67;;
20144;SDS011;10233;50.814;6.590;2022-08-27T03:29:10;7.03;;;2.00;;
20144;SDS011;10233;50.814;6.590;2022-08-27T03:30:12;6.60;;;1.80;;
20144;SDS011;10233;50.814;6.590;2022-08-27T03:31:18;3.58;;;1.42;;
20144;SDS011;10233;50.814;6.590;2022-08-27T03:32:25;6.63;;;1.70;;
20144;SDS011;10233;50.814;6.590;2022-08-27T03:33:27;5.18;;;1.55;;
20144;SDS011;10233;50.814;6.590;2022-08-27T03:34:29;4.35;;;1.35;;
20144;SDS011;10233;50.814;6.590;2022-08-27T03:35:30;3.30;;;1.20;;
20144;SDS011;10233;50.814;6.590;2022-08-27T03:36:30;5.70;;;1.70;;
20144;SDS011;10233;50.814;6.590;2022-08-27T03:37:31;3.90;;;1.33;;
20144;SDS011;10233;50.814;6.590;2022-08-27T03:38:31;2.27;;;1.03;;
20144;SDS011;10233;50.814;6.590;2022-08-27T03:39:32;3.35;;;1.10;;
20144;SDS011;10233;50.814;6.590;2022-08-27T03:40:32;4.70;;;1.10;;
20144;SDS011;10233;50.814;6.590;2022-08-27T03:41:33;1.92;;;1.10;;
20144;SDS011;10233;50.814;6.590;2022-08-27T03:42:34;2.22;;;1.17;;
20144;SDS011;10233;50.814;6.590;2022-08-27T03:43:35;3.10;;;1.02;;
20144;SDS011;10233;50.814;6.590;2022-08-27T03:44:36;4.13;;;1.10;;
20144;SDS011;10233;50.814;6.590;2022-08-27T03:45:36;4.40;;;1.20;;
20144;SDS011;10233;50.814;6.590;2022-08-27T03:46:37;1.97;;;0.87;;
20144;SDS011;10233;50.814;6.590;2022-08-27T03:47:37;2.10;;;0.98;;
20144;SDS011;10233;50.814;6.590;2022-08-27T03:48:38;2.75;;;1.00;;
20144;SDS011;10233;50.814;6.590;2022-08-27T03:49:39;2.47;;;1.07;;
20144;SDS011;10233;50.814;6.590;2022-08-27T03:50:40;2.67;;;0.97;;
20144;SDS011;10233;50.814;6.590;2022-08-27T03:51:43;3.35;;;1.20;;
20144;SDS011;10233;50.814;6.590;2022-08-27T03:52:44;2.22;;;1.13;;
20144;SDS011;10233;50.814;6.590;2022-08-27T03:53:44;4.03;;;1.05;;
20144;SDS011;10233;50.814;6.590;2022-08-27T03:54:46;3.42;;;1.30;;
20144;SDS011;10233;50.814;6.590;2022-08-27T03:55:46;4.93;;;1.33;;
20144;SDS011;10233;50.814;6.590;2022-08-27T03:56:47;4.22;;;1.20;;
20144;SDS011;10233;50.814;6.590;2022-08-27T03:57:48;3.17;;;1.10;;
20144;SDS011;10233;50.814;6.590;2022-08-27T03:58:48;2.60;;;0.87;;
20144;SDS011;10233;50.814;6.590;2022-08-27T03:59:49;1.67;;;0.90;;
20144;SDS011;10233;50.814;6.590;2022-08-27T04:00:50;5.45;;;1.20;;
20144;SDS011;10233;50.814;6.590;2022-08-27T04:01:50;3.00;;;1.00;;
20144;SDS011;10233;50.814;6.590;2022-08-27T04:02:51;3.40;;;0.90;;
20144;SDS011;10233;50.814;6.590;2022-08-27T04:03:53;3.22;;;1.00;;
20144;SDS011;10233;50.814;6.590;2022-08-27T04:04:55;4.97;;;1.20;;
20144;SDS011;10233;50.814;6.590;2022-08-27T04:05:56;6.25;;;1.30;;
20144;SDS011;10233;50.814;6.590;2022-08-27T04:06:57;2.72;;;1.00;;
20144;SDS011;10233;50.814;6.590;2022-08-27T04:07:58;6.00;;;1.27;;
20144;SDS011;10233;50.814;6.590;2022-08-27T04:09:00;3.28;;;1.05;;
20144;SDS011;10233;50.814;6.590;2022-08-27T04:10:00;4.40;;;0.87;;
20144;SDS011;10233;50.814;6.590;2022-08-27T04:11:04;3.38;;;0.98;;
20144;SDS011;10233;50.814;6.590;2022-08-27T04:12:05;3.35;;;1.20;;
20144;SDS011;10233;50.814;6.590;2022-08-27T04:13:06;6.33;;;1.00;;
20144;SDS011;10233;50.814;6.590;2022-08-27T04:14:07;1.45;;;1.15;;
20144;SDS011;10233;50.814;6.590;2022-08-27T04:15:08;3.53;;;1.27;;
20144;SDS011;10233;50.814;6.590;2022-08-27T04:16:11;2.50;;;0.95;;
20144;SDS011;10233;50.814;6.590;2022-08-27T04:17:11;4.47;;;1.30;;
20144;SDS011;10233;50.814;6.590;2022-08-27T04:18:12;3.28;;;0.93;;
20144;SDS011;10233;50.814;6.590;2022-08-27T04:19:15;2.17;;;1.05;;
20144;SDS011;10233;50.814;6.590;2022-08-27T04:20:16;5.45;;;1.15;;
20144;SDS011;10233;50.814;6.590;2022-08-27T04:21:16;4.87;;;1.27;;
20144;SDS011;10233;50.814;6.590;2022-08-27T04:22:17;2.53;;;1.03;;
20144;SDS011;10233;50.814;6.590;2022-08-27T04:23:18;5.25;;;1.30;;
20144;SDS011;10233;50.814;6.590;2022-08-27T04:24:19;2.97;;;1.10;;
20144;SDS011;10233;50.814;6.590;2022-08-27T04:25:19;3.72;;;1.27;;
20144;SDS011;10233;50.814;6.590;2022-08-27T04:26:20;5.43;;;1.20;;
20144;SDS011;10233;50.814;6.590;2022-08-27T04:27:21;4.38;;;0.80;;
20144;SDS011;10233;50.814;6.590;2022-08-27T04:28:24;4.10;;;1.30;;
20144;SDS011;10233;50.814;6.590;2022-08-27T04:29:24;4.70;;;1.27;;
20144;SDS011;10233;50.814;6.590;2022-08-27T04:30:25;2.13;;;1.10;;
20144;SDS011;10233;50.814;6.590;2022-08-27T04:31:25;3.25;;;0.98;;
20144;SDS011;10233;50.814;6.590;2022-08-27T04:32:27;2.10;;;1.10;;
20144;SDS011;10233;50.814;6.590;2022-08-27T04:33:28;3.92;;;1.30;;
20144;SDS011;10233;50.814;6.590;2022-08-27T04:34:30;4.18;;;1.05;;
20144;SDS011;10233;50.814;6.590;2022-08-27T04:35:32;2.43;;;1.23;;
20144;SDS011;10233;50.814;6.590;2022-08-27T04:36:33;2.90;;;1.00;;
20144;SDS011;10233;50.814;6.590;2022-08-27T04:37:33;3.15;;;1.02;;
20144;SDS011;10233;50.814;6.590;2022-08-27T04:38:34;4.95;;;1.15;;
20144;SDS011;10233;50.814;6.590;2022-08-27T04:39:35;2.38;;;1.02;;
20144;SDS011;10233;50.814;6.590;2022-08-27T04:40:36;3.17;;;1.02;;
20144;SDS011;10233;50.814;6.590;2022-08-27T04:41:57;6.97;;;1.20;;
20144;SDS011;10233;50.814;6.590;2022-08-27T04:42:59;3.50;;;0.90;;
20144;SDS011;10233;50.814;6.590;2022-08-27T04:44:06;4.30;;;1.20;;
20144;SDS011;10233;50.814;6.590;2022-08-27T04:45:09;5.15;;;1.25;;
20144;SDS011;10233;50.814;6.590;2022-08-27T04:46:10;4.00;;;1.30;;
20144;SDS011;10233;50.814;6.590;2022-08-27T04:47:11;3.95;;;1.30;;
20144;SDS011;10233;50.814;6.590;2022-08-27T04:48:13;3.33;;;1.27;;
20144;SDS011;10233;50.814;6.590;2022-08-27T04:49:16;4.63;;;1.20;;
20144;SDS011;10233;50.814;6.590;2022-08-27T04:50:16;3.78;;;1.20;;
20144;SDS011;10233;50.814;6.590;2022-08-27T04:51:17;1.65;;;0.75;;
20144;SDS011;10233;50.814;6.590;2022-08-27T04:52:18;3.20;;;1.02;;
20144;SDS011;10233;50.814;6.590;2022-08-27T04:53:18;3.70;;;1.10;;
20144;SDS011;10233;50.814;6.590;2022-08-27T04:54:19;5.32;;;1.10;;
20144;SDS011;10233;50.814;6.590;2022-08-27T04:55:20;3.23;;;1.07;;
20144;SDS011;10233;50.814;6.590;2022-08-27T04:56:21;1.93;;;1.10;;
20144;SDS011;10233;50.814;6.590;2022-08-27T04:57:23;2.28;;;1.20;;
20144;SDS011;10233;50.814;6.590;2022-08-27T04:58:24;6.27;;;1.20;;
20144;SDS011;10233;50.814;6.590;2022-08-27T04:59:25;13.60;;;1.75;;
20144;SDS011;10233;50.814;6.590;2022-08-27T05:00:25;2.40;;;1.10;;
20144;SDS011;10233;50.814;6.590;2022-08-27T05:01:27;3.77;;;1.00;;
20144;SDS011;10233;50.814;6.590;2022-08-27T05:02:28;4.10;;;0.90;;
20144;SDS011;10233;50.814;6.590;2022-08-27T05:03:29;4.13;;;1.23;;
20144;SDS011;10233;50.814;6.590;2022-08-27T05:04:29;3.80;;;1.17;;
20144;SDS011;10233;50.814;6.590;2022-08-27T05:05:30;5.68;;;1.30;;
20144;SDS011;10233;50.814;6.590;2022-08-27T05:06:30;2.00;;;1.00;;
20144;SDS011;10233;50.814;6.590;2022-08-27T05:07:31;3.88;;;1.05;;
20144;SDS011;10233;50.814;6.590;2022-08-27T05:08:32;4.17;;;1.10;;
20144;SDS011;10233;50.814;6.590;2022-08-27T05:09:33;4.18;;;1.10;;
20144;SDS011;10233;50.814;6.590;2022-08-27T05:10:43;4.90;;;1.52;;
20144;SDS011;10233;50.814;6.590;2022-08-27T05:11:47;3.20;;;1.02;;
20144;SDS011;10233;50.814;6.590;2022-08-27T05:12:47;2.20;;;0.95;;
20144;SDS011;10233;50.814;6.590;2022-08-27T05:13:49;3.53;;;1.25;;
20144;SDS011;10233;50.814;6.590;2022-08-27T05:14:49;2.20;;;0.80;;
20144;SDS011;10233;50.814;6.590;2022-08-27T05:15:56;3.13;;;1.07;;
20144;SDS011;10233;50.814;6.590;2022-08-27T05:16:59;3.25;;;1.10;;
20144;SDS011;10233;50.814;6.590;2022-08-27T05:17:59;2.47;;;0.90;;
20144;SDS011;10233;50.814;6.590;2022-08-27T05:19:01;2.13;;;1.00;;
20144;SDS011;10233;50.814;6.590;2022-08-27T05:20:04;3.47;;;1.10;;
20144;SDS011;10233;50.814;6.590;2022-08-27T05:21:05;4.00;;;1.20;;
20144;SDS011;10233;50.814;6.590;2022-08-27T05:22:06;4.55;;;1.10;;
20144;SDS011;10233;50.814;6.590;2022-08-27T05:23:07;6.50;;;1.23;;
20144;SDS011;10233;50.814;6.590;2022-08-27T05:24:08;2.75;;;0.93;;
20144;SDS011;10233;50.814;6.590;2022-08-27T05:25:08;4.20;;;1.17;;
20144;SDS011;10233;50.814;6.590;2022-08-27T05:26:10;3.78;;;1.27;;
20144;SDS011;10233;50.814;6.590;2022-08-27T05:27:10;4.10;;;1.13;;
20144;SDS011;10233;50.814;6.590;2022-08-27T05:28:11;5.87;;;1.40;;
20144;SDS011;10233;50.814;6.590;2022-08-27T05:29:13;2.35;;;1.20;;
20144;SDS011;10233;50.814;6.590;2022-08-27T05:30:14;3.13;;;1.17;;
20144;SDS011;10233;50.814;6.590;2022-08-27T05:31:15;4.57;;;1.60;;
20144;SDS011;10233;50.814;6.590;2022-08-27T05:32:18;4.93;;;1.30;;
20144;SDS011;10233;50.814;6.590;2022-08-27T05:33:22;2.40;;;1.00;;
20144;SDS011;10233;50.814;6.590;2022-08-27T05:34:24;3.92;;;1.50;;
20144;SDS011;10233;50.814;6.590;2022-08-27T05:35:24;4.90;;;1.20;;
20144;SDS011;10233;50.814;6.590;2022-08-27T05:36:29;3.77;;;1.07;;
20144;SDS011;10233;50.814;6.590;2022-08-27T05:37:32;3.90;;;1.20;;
20144;SDS011;10233;50.814;6.590;2022-08-27T05:38:33;4.20;;;1.35;;
20144;SDS011;10233;50.814;6.590;2022-08-27T05:39:35;4.07;;;1.60;;
20144;SDS011;10233;50.814;6.590;2022-08-27T05:40:36;3.63;;;1.00;;
20144;SDS011;10233;50.814;6.590;2022-08-27T05:41:37;5.03;;;1.20;;
20144;SDS011;10233;50.814;6.590;2022-08-27T05:42:38;1.70;;;1.00;;
20144;SDS011;10233;50.814;6.590;2022-08-27T05:43:39;2.63;;;1.05;;
20144;SDS011;10233;50.814;6.590;2022-08-27T05:44:41;1.52;;;1.08;;
20144;SDS011;10233;50.814;6.590;2022-08-27T05:45:46;4.97;;;1.07;;
20144;SDS011;10233;50.814;6.590;2022-08-27T05:46:48;2.83;;;1.10;;
20144;SDS011;10233;50.814;6.590;2022-08-27T05:47:48;3.53;;;1.20;;
20144;SDS011;10233;50.814;6.590;2022-08-27T05:48:50;5.13;;;1.47;;
20144;SDS011;10233;50.814;6.590;2022-08-27T05:49:51;4.60;;;1.17;;
20144;SDS011;10233;50.814;6.590;2022-08-27T05:50:52;3.90;;;1.13;;
20144;SDS011;10233;50.814;6.590;2022-08-27T05:51:56;3.03;;;1.15;;
20144;SDS011;10233;50.814;6.590;2022-08-27T05:52:56;3.17;;;1.27;;
20144;SDS011;10233;50.814;6.590;2022-08-27T05:54:01;5.03;;;1.30;;
20144;SDS011;10233;50.814;6.590;2022-08-27T05:55:06;1.90;;;1.13;;
20144;SDS011;10233;50.814;6.590;2022-08-27T05:56:14;3.30;;;1.10;;
20144;SDS011;10233;50.814;6.590;2022-08-27T05:57:20;9.60;;;1.27;;
20144;SDS011;10233;50.814;6.590;2022-08-27T05:58:20;5.63;;;1.20;;
20144;SDS011;10233;50.814;6.590;2022-08-27T05:59:39;4.18;;;1.00;;
20144;SDS011;10233;50.814;6.590;2022-08-27T06:00:59;5.20;;;1.48;;
20144;SDS011;10233;50.814;6.590;2022-08-27T06:02:05;4.65;;;1.45;;
20144;SDS011;10233;50.814;6.590;2022-08-27T06:03:09;2.65;;;1.00;;
20144;SDS011;10233;50.814;6.590;2022-08-27T06:04:12;3.28;;;1.10;;
20144;SDS011;10233;50.814;6.590;2022-08-27T06:05:14;2.65;;;1.13;;
20144;SDS011;10233;50.814;6.590;2022-08-27T06:06:15;6.40;;;1.80;;
20144;SDS011;10233;50.814;6.590;2022-08-27T06:07:15;7.88;;;1.30;;
20144;SDS011;10233;50.814;6.590;2022-08-27T06:08:16;2.57;;;1.10;;
20144;SDS011;10233;50.814;6.590;2022-08-27T06:09:17;5.47;;;1.85;;
20144;SDS011;10233;50.814;6.590;2022-08-27T06:10:20;3.47;;;1.20;;
20144;SDS011;10233;50.814;6.590;2022-08-27T06:11:20;2.97;;;1.00;;
20144;SDS011;10233;50.814;6.590;2022-08-27T06:12:21;5.50;;;1.27;;
20144;SDS011;10233;50.814;6.590;2022-08-27T06:13:22;3.78;;;1.27;;
20144;SDS011;10233;50.814;6.590;2022-08-27T06:14:23;2.60;;;0.93;;
20144;SDS011;10233;50.814;6.590;2022-08-27T06:15:24;3.40;;;1.40;;
20144;SDS011;10233;50.814;6.590;2022-08-27T06:16:25;5.82;;;1.20;;